sensor_id;sensor_type;location;lat;lon;timestamp;P1;durP1;ratioP1;P2;durP2;ratioP2
20810;SDS011;10566;52.928;10.522;2022-12-13T00:00:43;54.63;;;22.83;;
20810;SDS011;10566;52.928;10.522;2022-12-13T00:03:09;54.60;;;23.43;;
20810;SDS011;10566;52.928;10.522;2022-12-13T00:05:41;54.47;;;23.00;;
20810;SDS011;10566;52.928;10.522;2022-12-13T00:08:07;53.57;;;22.83;;
20810;SDS011;10566;52.928;10.522;2022-12-13T00:10:33;58.70;;;24.20;;
20810;SDS011;10566;52.928;10.522;2022-12-13T00:12:59;57.17;;;24.30;;
20810;SDS011;10566;52.928;10.522;2022-12-13T00:15:25;57.43;;;24.27;;
20810;SDS011;10566;52.928;10.522;2022-12-13T00:17:51;53.70;;;24.33;;
20810;SDS011;10566;52.928;10.522;2022-12-13T00:20:17;55.40;;;23.93;;
20810;SDS011;10566;52.928;10.522;2022-12-13T00:22:43;57.57;;;23.93;;
20810;SDS011;10566;52.928;10.522;2022-12-13T00:25:09;56.17;;;23.17;;
20810;SDS011;10566;52.928;10.522;2022-12-13T00:27:35;60.87;;;25.13;;
20810;SDS011;10566;52.928;10.522;2022-12-13T00:30:01;58.20;;;23.87;;
20810;SDS011;10566;52.928;10.522;2022-12-13T00:32:27;52.80;;;22.60;;
20810;SDS011;10566;52.928;10.522;2022-12-13T00:34:53;55.87;;;23.67;;
20810;SDS011;10566;52.928;10.522;2022-12-13T00:37:19;64.77;;;23.93;;
20810;SDS011;10566;52.928;10.522;2022-12-13T00:39:45;63.27;;;24.30;;
20810;SDS011;10566;52.928;10.522;2022-12-13T00:42:11;55.87;;;23.13;;
20810;SDS011;10566;52.928;10.522;2022-12-13T00:44:37;61.33;;;24.37;;
20810;SDS011;10566;52.928;10.522;2022-12-13T00:47:03;62.27;;;24.80;;
20810;SDS011;10566;52.928;10.522;2022-12-13T00:49:29;64.77;;;24.27;;
20810;SDS011;10566;52.928;10.522;2022-12-13T00:51:55;64.37;;;25.73;;
20810;SDS011;10566;52.928;10.522;2022-12-13T00:54:21;77.70;;;30.43;;
20810;SDS011;10566;52.928;10.522;2022-12-13T00:56:47;73.70;;;27.00;;
20810;SDS011;10566;52.928;10.522;2022-12-13T00:59:15;76.17;;;31.23;;
20810;SDS011;10566;52.928;10.522;2022-12-13T01:01:41;64.43;;;26.93;;
20810;SDS011;10566;52.928;10.522;2022-12-13T01:04:07;67.70;;;27.30;;
20810;SDS011;10566;52.928;10.522;2022-12-13T01:06:37;78.13;;;30.70;;
20810;SDS011;10566;52.928;10.522;2022-12-13T01:09:04;67.50;;;27.37;;
20810;SDS011;10566;52.928;10.522;2022-12-13T01:11:30;64.73;;;26.47;;
20810;SDS011;10566;52.928;10.522;2022-12-13T01:13:56;63.33;;;26.30;;
20810;SDS011;10566;52.928;10.522;2022-12-13T01:16:22;62.90;;;22.60;;
20810;SDS011;10566;52.928;10.522;2022-12-13T01:18:48;59.73;;;22.83;;
20810;SDS011;10566;52.928;10.522;2022-12-13T01:21:16;64.70;;;23.33;;
20810;SDS011;10566;52.928;10.522;2022-12-13T01:23:42;56.63;;;21.57;;
20810;SDS011;10566;52.928;10.522;2022-12-13T01:26:10;62.33;;;23.90;;
20810;SDS011;10566;52.928;10.522;2022-12-13T01:28:36;58.57;;;21.73;;
20810;SDS011;10566;52.928;10.522;2022-12-13T01:31:03;56.30;;;22.70;;
20810;SDS011;10566;52.928;10.522;2022-12-13T01:33:30;56.47;;;22.37;;
20810;SDS011;10566;52.928;10.522;2022-12-13T01:35:59;56.10;;;21.47;;
20810;SDS011;10566;52.928;10.522;2022-12-13T01:38:25;54.83;;;22.03;;
20810;SDS011;10566;52.928;10.522;2022-12-13T01:40:51;53.27;;;21.80;;
20810;SDS011;10566;52.928;10.522;2022-12-13T01:43:24;49.53;;;20.10;;
20810;SDS011;10566;52.928;10.522;2022-12-13T01:45:50;52.20;;;20.23;;
20810;SDS011;10566;52.928;10.522;2022-12-13T01:48:18;51.73;;;20.40;;
20810;SDS011;10566;52.928;10.522;2022-12-13T01:50:46;58.83;;;21.43;;
20810;SDS011;10566;52.928;10.522;2022-12-13T01:53:14;52.33;;;20.17;;
20810;SDS011;10566;52.928;10.522;2022-12-13T01:55:41;48.53;;;19.63;;
20810;SDS011;10566;52.928;10.522;2022-12-13T01:58:09;49.20;;;19.80;;
20810;SDS011;10566;52.928;10.522;2022-12-13T02:00:35;52.40;;;20.93;;
20810;SDS011;10566;52.928;10.522;2022-12-13T02:03:02;53.87;;;20.73;;
20810;SDS011;10566;52.928;10.522;2022-12-13T02:05:43;52.80;;;20.40;;
20810;SDS011;10566;52.928;10.522;2022-12-13T02:08:10;49.17;;;19.87;;
20810;SDS011;10566;52.928;10.522;2022-12-13T02:10:36;49.70;;;19.93;;
20810;SDS011;10566;52.928;10.522;2022-12-13T02:13:02;49.50;;;20.27;;
20810;SDS011;10566;52.928;10.522;2022-12-13T02:15:48;49.00;;;20.90;;
20810;SDS011;10566;52.928;10.522;2022-12-13T02:18:20;54.10;;;20.70;;
20810;SDS011;10566;52.928;10.522;2022-12-13T02:31:10;53.30;;;21.17;;
20810;SDS011;10566;52.928;10.522;2022-12-13T02:33:58;53.13;;;20.77;;
20810;SDS011;10566;52.928;10.522;2022-12-13T02:36:30;52.33;;;21.07;;
20810;SDS011;10566;52.928;10.522;2022-12-13T02:39:02;51.73;;;19.17;;
20810;SDS011;10566;52.928;10.522;2022-12-13T02:44:03;50.10;;;20.27;;
20810;SDS011;10566;52.928;10.522;2022-12-13T02:46:33;47.47;;;19.13;;
20810;SDS011;10566;52.928;10.522;2022-12-13T02:49:00;51.93;;;20.87;;
20810;SDS011;10566;52.928;10.522;2022-12-13T02:51:26;48.43;;;20.07;;
20810;SDS011;10566;52.928;10.522;2022-12-13T02:53:53;52.90;;;19.70;;
20810;SDS011;10566;52.928;10.522;2022-12-13T02:56:19;51.97;;;20.37;;
20810;SDS011;10566;52.928;10.522;2022-12-13T02:58:47;51.40;;;19.47;;
20810;SDS011;10566;52.928;10.522;2022-12-13T03:06:30;48.27;;;18.90;;
20810;SDS011;10566;52.928;10.522;2022-12-13T03:15:10;45.43;;;18.30;;
20810;SDS011;10566;52.928;10.522;2022-12-13T03:17:42;52.17;;;19.20;;
20810;SDS011;10566;52.928;10.522;2022-12-13T03:20:09;50.10;;;19.77;;
20810;SDS011;10566;52.928;10.522;2022-12-13T03:22:35;49.50;;;19.00;;
20810;SDS011;10566;52.928;10.522;2022-12-13T03:25:01;48.83;;;19.13;;
20810;SDS011;10566;52.928;10.522;2022-12-13T03:27:27;49.60;;;19.60;;
20810;SDS011;10566;52.928;10.522;2022-12-13T03:29:53;51.23;;;19.27;;
20810;SDS011;10566;52.928;10.522;2022-12-13T03:32:20;50.63;;;20.13;;
20810;SDS011;10566;52.928;10.522;2022-12-13T03:34:46;56.70;;;20.43;;
20810;SDS011;10566;52.928;10.522;2022-12-13T03:37:12;52.57;;;19.23;;
20810;SDS011;10566;52.928;10.522;2022-12-13T03:39:38;50.97;;;19.07;;
20810;SDS011;10566;52.928;10.522;2022-12-13T03:42:04;52.30;;;18.47;;
20810;SDS011;10566;52.928;10.522;2022-12-13T03:44:30;51.63;;;19.97;;
20810;SDS011;10566;52.928;10.522;2022-12-13T03:46:56;44.77;;;18.90;;
20810;SDS011;10566;52.928;10.522;2022-12-13T03:49:23;51.47;;;19.97;;
20810;SDS011;10566;52.928;10.522;2022-12-13T03:51:49;48.80;;;19.43;;
20810;SDS011;10566;52.928;10.522;2022-12-13T03:54:15;44.13;;;18.47;;
20810;SDS011;10566;52.928;10.522;2022-12-13T03:56:41;50.47;;;20.00;;
20810;SDS011;10566;52.928;10.522;2022-12-13T03:59:07;48.03;;;18.87;;
20810;SDS011;10566;52.928;10.522;2022-12-13T04:01:33;47.97;;;19.53;;
20810;SDS011;10566;52.928;10.522;2022-12-13T04:04:00;45.73;;;18.67;;
20810;SDS011;10566;52.928;10.522;2022-12-13T04:06:26;50.70;;;20.67;;
20810;SDS011;10566;52.928;10.522;2022-12-13T04:08:53;48.90;;;19.40;;
20810;SDS011;10566;52.928;10.522;2022-12-13T04:11:19;47.93;;;18.87;;
20810;SDS011;10566;52.928;10.522;2022-12-13T04:14:04;49.23;;;19.53;;
20810;SDS011;10566;52.928;10.522;2022-12-13T04:16:30;49.20;;;19.43;;
20810;SDS011;10566;52.928;10.522;2022-12-13T04:18:56;51.33;;;19.07;;
20810;SDS011;10566;52.928;10.522;2022-12-13T04:21:22;47.77;;;19.33;;
20810;SDS011;10566;52.928;10.522;2022-12-13T04:23:49;48.57;;;20.27;;
20810;SDS011;10566;52.928;10.522;2022-12-13T04:26:16;46.33;;;19.73;;
20810;SDS011;10566;52.928;10.522;2022-12-13T04:28:44;46.83;;;18.63;;
20810;SDS011;10566;52.928;10.522;2022-12-13T04:31:11;44.07;;;17.30;;
20810;SDS011;10566;52.928;10.522;2022-12-13T04:33:37;48.07;;;19.90;;
20810;SDS011;10566;52.928;10.522;2022-12-13T04:36:04;43.20;;;17.43;;
20810;SDS011;10566;52.928;10.522;2022-12-13T04:38:30;45.20;;;17.23;;
20810;SDS011;10566;52.928;10.522;2022-12-13T04:41:04;48.90;;;18.73;;
20810;SDS011;10566;52.928;10.522;2022-12-13T04:43:30;46.80;;;18.93;;
20810;SDS011;10566;52.928;10.522;2022-12-13T04:45:57;48.70;;;19.33;;
20810;SDS011;10566;52.928;10.522;2022-12-13T04:48:23;50.53;;;19.47;;
20810;SDS011;10566;52.928;10.522;2022-12-13T04:50:49;43.40;;;17.53;;
20810;SDS011;10566;52.928;10.522;2022-12-13T04:53:15;45.70;;;18.93;;
20810;SDS011;10566;52.928;10.522;2022-12-13T04:55:42;43.13;;;17.47;;
20810;SDS011;10566;52.928;10.522;2022-12-13T04:58:08;48.27;;;18.27;;
20810;SDS011;10566;52.928;10.522;2022-12-13T05:00:34;45.40;;;17.23;;
20810;SDS011;10566;52.928;10.522;2022-12-13T05:03:01;49.30;;;18.07;;
20810;SDS011;10566;52.928;10.522;2022-12-13T05:05:27;47.20;;;18.23;;
20810;SDS011;10566;52.928;10.522;2022-12-13T05:07:53;47.67;;;17.97;;
20810;SDS011;10566;52.928;10.522;2022-12-13T05:10:20;43.97;;;17.53;;
20810;SDS011;10566;52.928;10.522;2022-12-13T05:12:46;45.27;;;17.83;;
20810;SDS011;10566;52.928;10.522;2022-12-13T05:15:13;41.10;;;17.17;;
20810;SDS011;10566;52.928;10.522;2022-12-13T05:17:39;44.77;;;17.40;;
20810;SDS011;10566;52.928;10.522;2022-12-13T05:20:05;41.83;;;18.33;;
20810;SDS011;10566;52.928;10.522;2022-12-13T05:22:32;48.03;;;18.80;;
20810;SDS011;10566;52.928;10.522;2022-12-13T05:24:58;39.93;;;17.47;;
20810;SDS011;10566;52.928;10.522;2022-12-13T05:27:25;45.07;;;17.37;;
20810;SDS011;10566;52.928;10.522;2022-12-13T05:29:51;47.33;;;18.00;;
20810;SDS011;10566;52.928;10.522;2022-12-13T05:32:18;43.93;;;18.10;;
20810;SDS011;10566;52.928;10.522;2022-12-13T05:34:44;40.77;;;17.43;;
20810;SDS011;10566;52.928;10.522;2022-12-13T05:37:10;43.93;;;18.27;;
20810;SDS011;10566;52.928;10.522;2022-12-13T05:39:36;43.10;;;17.00;;
20810;SDS011;10566;52.928;10.522;2022-12-13T05:42:02;46.80;;;17.57;;
20810;SDS011;10566;52.928;10.522;2022-12-13T05:44:31;45.83;;;17.43;;
20810;SDS011;10566;52.928;10.522;2022-12-13T05:46:57;41.00;;;16.17;;
20810;SDS011;10566;52.928;10.522;2022-12-13T05:49:24;47.67;;;17.83;;
20810;SDS011;10566;52.928;10.522;2022-12-13T05:51:50;44.70;;;16.97;;
20810;SDS011;10566;52.928;10.522;2022-12-13T05:54:21;49.33;;;18.70;;
20810;SDS011;10566;52.928;10.522;2022-12-13T05:56:52;46.17;;;19.37;;
20810;SDS011;10566;52.928;10.522;2022-12-13T05:59:19;50.30;;;17.50;;
20810;SDS011;10566;52.928;10.522;2022-12-13T06:01:45;43.53;;;18.27;;
20810;SDS011;10566;52.928;10.522;2022-12-13T06:04:11;47.13;;;19.33;;
20810;SDS011;10566;52.928;10.522;2022-12-13T06:06:37;47.63;;;18.67;;
20810;SDS011;10566;52.928;10.522;2022-12-13T06:09:04;47.90;;;18.47;;
20810;SDS011;10566;52.928;10.522;2022-12-13T06:11:31;45.67;;;19.27;;
20810;SDS011;10566;52.928;10.522;2022-12-13T06:13:57;45.23;;;17.73;;
20810;SDS011;10566;52.928;10.522;2022-12-13T06:16:23;48.63;;;18.63;;
20810;SDS011;10566;52.928;10.522;2022-12-13T06:18:50;49.43;;;17.90;;
20810;SDS011;10566;52.928;10.522;2022-12-13T06:21:17;39.33;;;17.30;;
20810;SDS011;10566;52.928;10.522;2022-12-13T06:23:43;46.13;;;18.53;;
20810;SDS011;10566;52.928;10.522;2022-12-13T06:26:10;45.23;;;18.17;;
20810;SDS011;10566;52.928;10.522;2022-12-13T06:28:36;47.07;;;17.87;;
20810;SDS011;10566;52.928;10.522;2022-12-13T06:31:03;40.57;;;17.13;;
20810;SDS011;10566;52.928;10.522;2022-12-13T06:33:29;46.53;;;18.20;;
20810;SDS011;10566;52.928;10.522;2022-12-13T06:35:59;44.33;;;18.33;;
20810;SDS011;10566;52.928;10.522;2022-12-13T06:38:25;44.17;;;16.90;;
20810;SDS011;10566;52.928;10.522;2022-12-13T06:40:52;41.20;;;17.10;;
20810;SDS011;10566;52.928;10.522;2022-12-13T06:43:18;41.27;;;17.83;;
20810;SDS011;10566;52.928;10.522;2022-12-13T06:45:45;45.73;;;18.57;;
20810;SDS011;10566;52.928;10.522;2022-12-13T06:48:11;45.27;;;17.50;;
20810;SDS011;10566;52.928;10.522;2022-12-13T06:50:38;45.17;;;17.87;;
20810;SDS011;10566;52.928;10.522;2022-12-13T06:53:04;43.73;;;17.33;;
20810;SDS011;10566;52.928;10.522;2022-12-13T06:55:34;42.73;;;18.07;;
20810;SDS011;10566;52.928;10.522;2022-12-13T06:58:00;51.87;;;18.97;;
20810;SDS011;10566;52.928;10.522;2022-12-13T07:00:29;49.50;;;18.40;;
20810;SDS011;10566;52.928;10.522;2022-12-13T07:02:55;47.20;;;19.77;;
20810;SDS011;10566;52.928;10.522;2022-12-13T07:05:22;51.07;;;21.50;;
20810;SDS011;10566;52.928;10.522;2022-12-13T07:07:49;54.27;;;20.90;;
20810;SDS011;10566;52.928;10.522;2022-12-13T07:10:16;55.90;;;23.00;;
20810;SDS011;10566;52.928;10.522;2022-12-13T07:12:42;59.13;;;21.80;;
20810;SDS011;10566;52.928;10.522;2022-12-13T07:15:08;61.60;;;23.40;;
20810;SDS011;10566;52.928;10.522;2022-12-13T07:17:35;55.80;;;21.73;;
20810;SDS011;10566;52.928;10.522;2022-12-13T07:20:05;47.10;;;20.47;;
20810;SDS011;10566;52.928;10.522;2022-12-13T07:22:32;58.53;;;24.27;;
20810;SDS011;10566;52.928;10.522;2022-12-13T07:24:58;52.10;;;22.37;;
20810;SDS011;10566;52.928;10.522;2022-12-13T07:27:25;58.67;;;23.57;;
20810;SDS011;10566;52.928;10.522;2022-12-13T07:29:51;54.83;;;21.27;;
20810;SDS011;10566;52.928;10.522;2022-12-13T07:32:18;50.43;;;20.80;;
20810;SDS011;10566;52.928;10.522;2022-12-13T07:34:44;53.23;;;21.43;;
20810;SDS011;10566;52.928;10.522;2022-12-13T07:37:10;55.20;;;21.97;;
20810;SDS011;10566;52.928;10.522;2022-12-13T07:39:36;50.23;;;22.03;;
20810;SDS011;10566;52.928;10.522;2022-12-13T07:42:02;53.07;;;20.93;;
20810;SDS011;10566;52.928;10.522;2022-12-13T07:44:28;51.87;;;21.23;;
20810;SDS011;10566;52.928;10.522;2022-12-13T07:46:55;55.70;;;24.00;;
20810;SDS011;10566;52.928;10.522;2022-12-13T07:49:21;59.60;;;25.03;;
20810;SDS011;10566;52.928;10.522;2022-12-13T07:51:47;55.27;;;25.43;;
20810;SDS011;10566;52.928;10.522;2022-12-13T07:54:13;61.87;;;26.60;;
20810;SDS011;10566;52.928;10.522;2022-12-13T07:56:39;62.90;;;26.20;;
20810;SDS011;10566;52.928;10.522;2022-12-13T07:59:06;68.83;;;28.80;;
20810;SDS011;10566;52.928;10.522;2022-12-13T08:01:38;73.97;;;32.63;;
20810;SDS011;10566;52.928;10.522;2022-12-13T08:04:06;68.43;;;29.97;;
20810;SDS011;10566;52.928;10.522;2022-12-13T08:06:36;69.80;;;29.27;;
20810;SDS011;10566;52.928;10.522;2022-12-13T08:09:03;63.03;;;27.77;;
20810;SDS011;10566;52.928;10.522;2022-12-13T08:11:33;65.73;;;27.27;;
20810;SDS011;10566;52.928;10.522;2022-12-13T08:13:59;62.87;;;26.57;;
20810;SDS011;10566;52.928;10.522;2022-12-13T08:16:26;61.23;;;25.27;;
20810;SDS011;10566;52.928;10.522;2022-12-13T08:18:58;61.70;;;25.47;;
20810;SDS011;10566;52.928;10.522;2022-12-13T08:21:25;59.27;;;24.27;;
20810;SDS011;10566;52.928;10.522;2022-12-13T08:23:52;63.87;;;25.30;;
20810;SDS011;10566;52.928;10.522;2022-12-13T08:26:19;75.60;;;29.03;;
20810;SDS011;10566;52.928;10.522;2022-12-13T08:28:45;86.23;;;31.80;;
20810;SDS011;10566;52.928;10.522;2022-12-13T08:31:11;84.37;;;32.03;;
20810;SDS011;10566;52.928;10.522;2022-12-13T08:33:38;89.53;;;35.47;;
20810;SDS011;10566;52.928;10.522;2022-12-13T08:36:09;83.60;;;31.77;;
20810;SDS011;10566;52.928;10.522;2022-12-13T08:38:35;84.20;;;32.73;;
20810;SDS011;10566;52.928;10.522;2022-12-13T08:41:02;86.57;;;34.50;;
20810;SDS011;10566;52.928;10.522;2022-12-13T08:43:28;81.20;;;31.87;;
20810;SDS011;10566;52.928;10.522;2022-12-13T08:45:54;89.53;;;32.93;;
20810;SDS011;10566;52.928;10.522;2022-12-13T08:48:21;84.70;;;31.93;;
20810;SDS011;10566;52.928;10.522;2022-12-13T08:50:47;81.13;;;31.30;;
20810;SDS011;10566;52.928;10.522;2022-12-13T08:53:14;87.10;;;33.43;;
20810;SDS011;10566;52.928;10.522;2022-12-13T08:55:40;81.33;;;31.87;;
20810;SDS011;10566;52.928;10.522;2022-12-13T08:58:06;82.93;;;33.17;;
20810;SDS011;10566;52.928;10.522;2022-12-13T09:00:33;74.80;;;31.83;;
20810;SDS011;10566;52.928;10.522;2022-12-13T09:03:00;83.83;;;31.60;;
20810;SDS011;10566;52.928;10.522;2022-12-13T09:05:29;74.90;;;31.83;;
20810;SDS011;10566;52.928;10.522;2022-12-13T09:07:57;80.93;;;31.03;;
20810;SDS011;10566;52.928;10.522;2022-12-13T09:10:23;69.17;;;30.37;;
20810;SDS011;10566;52.928;10.522;2022-12-13T09:12:50;72.77;;;33.17;;
20810;SDS011;10566;52.928;10.522;2022-12-13T09:15:19;68.57;;;29.73;;
20810;SDS011;10566;52.928;10.522;2022-12-13T09:17:45;73.87;;;30.57;;
20810;SDS011;10566;52.928;10.522;2022-12-13T09:20:11;62.87;;;28.50;;
20810;SDS011;10566;52.928;10.522;2022-12-13T09:22:38;59.83;;;25.97;;
20810;SDS011;10566;52.928;10.522;2022-12-13T09:25:04;58.00;;;26.20;;
20810;SDS011;10566;52.928;10.522;2022-12-13T09:27:31;59.30;;;26.50;;
20810;SDS011;10566;52.928;10.522;2022-12-13T09:29:57;52.73;;;24.07;;
20810;SDS011;10566;52.928;10.522;2022-12-13T09:32:24;53.07;;;23.67;;
20810;SDS011;10566;52.928;10.522;2022-12-13T09:34:51;51.50;;;23.70;;
20810;SDS011;10566;52.928;10.522;2022-12-13T09:37:18;50.97;;;23.87;;
20810;SDS011;10566;52.928;10.522;2022-12-13T09:39:44;52.70;;;23.33;;
20810;SDS011;10566;52.928;10.522;2022-12-13T09:42:44;58.83;;;24.87;;
20810;SDS011;10566;52.928;10.522;2022-12-13T09:45:05;51.57;;;22.53;;
20810;SDS011;10566;52.928;10.522;2022-12-13T09:47:35;50.77;;;23.17;;
20810;SDS011;10566;52.928;10.522;2022-12-13T09:50:13;52.83;;;23.43;;
20810;SDS011;10566;52.928;10.522;2022-12-13T09:52:40;52.30;;;23.33;;
20810;SDS011;10566;52.928;10.522;2022-12-13T09:55:26;50.73;;;24.20;;
20810;SDS011;10566;52.928;10.522;2022-12-13T09:57:55;55.90;;;24.20;;
20810;SDS011;10566;52.928;10.522;2022-12-13T10:00:23;56.63;;;25.27;;
20810;SDS011;10566;52.928;10.522;2022-12-13T10:05:25;50.97;;;24.07;;
20810;SDS011;10566;52.928;10.522;2022-12-13T10:07:52;50.30;;;24.87;;
20810;SDS011;10566;52.928;10.522;2022-12-13T10:10:19;52.90;;;24.60;;
20810;SDS011;10566;52.928;10.522;2022-12-13T10:12:47;54.60;;;24.47;;
20810;SDS011;10566;52.928;10.522;2022-12-13T10:15:16;55.40;;;24.20;;
20810;SDS011;10566;52.928;10.522;2022-12-13T10:17:43;56.60;;;24.60;;
20810;SDS011;10566;52.928;10.522;2022-12-13T10:20:16;58.37;;;25.57;;
20810;SDS011;10566;52.928;10.522;2022-12-13T10:22:42;55.77;;;25.07;;
20810;SDS011;10566;52.928;10.522;2022-12-13T10:25:08;60.57;;;25.83;;
20810;SDS011;10566;52.928;10.522;2022-12-13T10:27:38;57.20;;;24.97;;
20810;SDS011;10566;52.928;10.522;2022-12-13T10:30:18;53.53;;;25.03;;
20810;SDS011;10566;52.928;10.522;2022-12-13T10:32:56;54.77;;;23.07;;
20810;SDS011;10566;52.928;10.522;2022-12-13T10:35:24;52.03;;;23.03;;
20810;SDS011;10566;52.928;10.522;2022-12-13T10:37:50;52.37;;;23.03;;
20810;SDS011;10566;52.928;10.522;2022-12-13T10:43:12;54.40;;;22.97;;
20810;SDS011;10566;52.928;10.522;2022-12-13T10:45:40;54.57;;;23.83;;
20810;SDS011;10566;52.928;10.522;2022-12-13T10:48:15;49.83;;;22.60;;
20810;SDS011;10566;52.928;10.522;2022-12-13T10:50:42;49.13;;;23.17;;
20810;SDS011;10566;52.928;10.522;2022-12-13T10:53:13;58.73;;;24.83;;
20810;SDS011;10566;52.928;10.522;2022-12-13T10:55:43;50.80;;;23.10;;
20810;SDS011;10566;52.928;10.522;2022-12-13T10:58:15;52.27;;;21.83;;
20810;SDS011;10566;52.928;10.522;2022-12-13T11:00:43;49.80;;;24.03;;
20810;SDS011;10566;52.928;10.522;2022-12-13T11:03:32;50.50;;;22.43;;
20810;SDS011;10566;52.928;10.522;2022-12-13T11:06:03;49.70;;;22.57;;
20810;SDS011;10566;52.928;10.522;2022-12-13T11:08:30;50.97;;;23.60;;
20810;SDS011;10566;52.928;10.522;2022-12-13T11:11:03;52.47;;;23.77;;
20810;SDS011;10566;52.928;10.522;2022-12-13T11:13:36;50.40;;;22.50;;
20810;SDS011;10566;52.928;10.522;2022-12-13T11:16:04;45.93;;;21.87;;
20810;SDS011;10566;52.928;10.522;2022-12-13T11:18:39;45.87;;;22.00;;
20810;SDS011;10566;52.928;10.522;2022-12-13T11:21:05;47.47;;;22.33;;
20810;SDS011;10566;52.928;10.522;2022-12-13T11:23:38;49.80;;;23.27;;
20810;SDS011;10566;52.928;10.522;2022-12-13T11:26:08;49.97;;;22.83;;
20810;SDS011;10566;52.928;10.522;2022-12-13T11:28:52;44.20;;;22.67;;
20810;SDS011;10566;52.928;10.522;2022-12-13T11:31:27;47.67;;;22.73;;
20810;SDS011;10566;52.928;10.522;2022-12-13T11:39:02;46.77;;;22.63;;
20810;SDS011;10566;52.928;10.522;2022-12-13T11:41:35;49.83;;;23.20;;
20810;SDS011;10566;52.928;10.522;2022-12-13T11:44:14;47.37;;;22.23;;
20810;SDS011;10566;52.928;10.522;2022-12-13T11:46:44;47.23;;;22.27;;
20810;SDS011;10566;52.928;10.522;2022-12-13T11:49:14;44.90;;;21.33;;
20810;SDS011;10566;52.928;10.522;2022-12-13T11:51:43;43.30;;;20.20;;
20810;SDS011;10566;52.928;10.522;2022-12-13T11:54:16;43.93;;;20.87;;
20810;SDS011;10566;52.928;10.522;2022-12-13T11:56:44;43.87;;;20.63;;
20810;SDS011;10566;52.928;10.522;2022-12-13T12:01:45;42.53;;;20.73;;
20810;SDS011;10566;52.928;10.522;2022-12-13T12:04:20;41.70;;;20.73;;
20810;SDS011;10566;52.928;10.522;2022-12-13T12:09:33;39.53;;;19.63;;
20810;SDS011;10566;52.928;10.522;2022-12-13T12:12:02;42.33;;;20.27;;
20810;SDS011;10566;52.928;10.522;2022-12-13T12:17:05;38.67;;;19.50;;
20810;SDS011;10566;52.928;10.522;2022-12-13T12:19:33;39.90;;;20.07;;
20810;SDS011;10566;52.928;10.522;2022-12-13T12:29:38;38.77;;;19.40;;
20810;SDS011;10566;52.928;10.522;2022-12-13T12:35:03;37.90;;;18.73;;
20810;SDS011;10566;52.928;10.522;2022-12-13T12:37:40;38.57;;;19.10;;
20810;SDS011;10566;52.928;10.522;2022-12-13T12:43:01;36.67;;;19.07;;
20810;SDS011;10566;52.928;10.522;2022-12-13T12:45:34;37.20;;;18.93;;
20810;SDS011;10566;52.928;10.522;2022-12-13T12:48:13;38.27;;;18.73;;
20810;SDS011;10566;52.928;10.522;2022-12-13T12:50:43;40.17;;;19.33;;
20810;SDS011;10566;52.928;10.522;2022-12-13T13:00:51;35.20;;;17.67;;
20810;SDS011;10566;52.928;10.522;2022-12-13T13:03:20;34.90;;;17.17;;
20810;SDS011;10566;52.928;10.522;2022-12-13T13:05:51;35.77;;;17.37;;
20810;SDS011;10566;52.928;10.522;2022-12-13T13:10:46;33.67;;;17.33;;
20810;SDS011;10566;52.928;10.522;2022-12-13T13:15:56;34.57;;;17.63;;
20810;SDS011;10566;52.928;10.522;2022-12-13T13:21:23;35.33;;;17.73;;
20810;SDS011;10566;52.928;10.522;2022-12-13T13:26:38;35.20;;;17.57;;
20810;SDS011;10566;52.928;10.522;2022-12-13T13:31:54;35.53;;;17.73;;
20810;SDS011;10566;52.928;10.522;2022-12-13T13:34:21;36.13;;;17.50;;
20810;SDS011;10566;52.928;10.522;2022-12-13T13:36:48;37.10;;;18.23;;
20810;SDS011;10566;52.928;10.522;2022-12-13T13:39:17;36.00;;;18.10;;
20810;SDS011;10566;52.928;10.522;2022-12-13T13:45:20;35.37;;;17.80;;
20810;SDS011;10566;52.928;10.522;2022-12-13T13:52:17;35.10;;;17.93;;
20810;SDS011;10566;52.928;10.522;2022-12-13T13:57:24;40.63;;;18.40;;
20810;SDS011;10566;52.928;10.522;2022-12-13T14:05:45;38.80;;;19.33;;
20810;SDS011;10566;52.928;10.522;2022-12-13T14:10:48;40.30;;;20.07;;
20810;SDS011;10566;52.928;10.522;2022-12-13T14:13:33;40.63;;;19.93;;
20810;SDS011;10566;52.928;10.522;2022-12-13T14:21:21;39.57;;;19.77;;
20810;SDS011;10566;52.928;10.522;2022-12-13T14:26:29;47.20;;;25.67;;
20810;SDS011;10566;52.928;10.522;2022-12-13T14:29:00;48.73;;;26.23;;
20810;SDS011;10566;52.928;10.522;2022-12-13T14:31:48;47.70;;;25.00;;
20810;SDS011;10566;52.928;10.522;2022-12-13T14:34:26;50.77;;;26.87;;
20810;SDS011;10566;52.928;10.522;2022-12-13T14:36:57;45.53;;;23.07;;
20810;SDS011;10566;52.928;10.522;2022-12-13T14:39:23;47.23;;;24.80;;
20810;SDS011;10566;52.928;10.522;2022-12-13T14:41:51;47.67;;;24.63;;
20810;SDS011;10566;52.928;10.522;2022-12-13T14:44:25;46.33;;;22.80;;
20810;SDS011;10566;52.928;10.522;2022-12-13T14:46:56;42.53;;;22.87;;
20810;SDS011;10566;52.928;10.522;2022-12-13T14:49:24;45.40;;;22.73;;
20810;SDS011;10566;52.928;10.522;2022-12-13T14:51:55;48.97;;;24.87;;
20810;SDS011;10566;52.928;10.522;2022-12-13T14:54:24;45.50;;;22.93;;
20810;SDS011;10566;52.928;10.522;2022-12-13T14:56:59;42.77;;;22.03;;
20810;SDS011;10566;52.928;10.522;2022-12-13T14:59:26;44.10;;;21.47;;
20810;SDS011;10566;52.928;10.522;2022-12-13T15:01:53;44.50;;;22.03;;
20810;SDS011;10566;52.928;10.522;2022-12-13T15:06:49;40.53;;;21.07;;
20810;SDS011;10566;52.928;10.522;2022-12-13T15:09:20;43.63;;;21.77;;
20810;SDS011;10566;52.928;10.522;2022-12-13T15:11:46;47.63;;;25.10;;
20810;SDS011;10566;52.928;10.522;2022-12-13T15:14:18;49.87;;;25.03;;
20810;SDS011;10566;52.928;10.522;2022-12-13T15:16:48;56.77;;;27.07;;
20810;SDS011;10566;52.928;10.522;2022-12-13T15:19:22;53.80;;;24.80;;
20810;SDS011;10566;52.928;10.522;2022-12-13T15:24:25;44.10;;;22.27;;
20810;SDS011;10566;52.928;10.522;2022-12-13T15:26:53;45.27;;;22.53;;
20810;SDS011;10566;52.928;10.522;2022-12-13T15:29:20;49.00;;;23.70;;
20810;SDS011;10566;52.928;10.522;2022-12-13T15:31:47;48.57;;;24.07;;
20810;SDS011;10566;52.928;10.522;2022-12-13T15:34:34;48.47;;;24.40;;
20810;SDS011;10566;52.928;10.522;2022-12-13T15:37:00;51.57;;;23.13;;
20810;SDS011;10566;52.928;10.522;2022-12-13T15:39:27;45.70;;;22.73;;
20810;SDS011;10566;52.928;10.522;2022-12-13T15:41:55;52.33;;;24.90;;
20810;SDS011;10566;52.928;10.522;2022-12-13T15:44:25;58.43;;;26.77;;
20810;SDS011;10566;52.928;10.522;2022-12-13T15:46:52;48.83;;;23.77;;
20810;SDS011;10566;52.928;10.522;2022-12-13T15:49:25;49.27;;;24.43;;
20810;SDS011;10566;52.928;10.522;2022-12-13T15:51:52;50.67;;;24.17;;
20810;SDS011;10566;52.928;10.522;2022-12-13T15:54:19;49.23;;;23.50;;
20810;SDS011;10566;52.928;10.522;2022-12-13T15:59:33;52.27;;;24.77;;
20810;SDS011;10566;52.928;10.522;2022-12-13T16:02:00;52.90;;;24.20;;
20810;SDS011;10566;52.928;10.522;2022-12-13T16:04:28;51.77;;;25.33;;
20810;SDS011;10566;52.928;10.522;2022-12-13T16:06:55;53.40;;;24.80;;